Time;durP1;ratioP1;P1;durP2;ratioP2;P2;SDS_P1;SDS_P2;PMS_P1;PMS_P2;Temp;Humidity;BMP_temperature;BMP_pressure;BME280_temperature;BME280_humidity;BME280_pressure;Samples;Min_cycle;Max_cycle;Signal;HPM_P1;HPM_P2
2023/05/12 00:00:33;;;;;;;3.95;3.17;;;;;;;;;;4992894;28;20508;-73
2023/05/12 00:03:02;;;;;;;4.22;3.10;;;;;;;;;;5006760;28;20036;-73
2023/05/12 00:05:28;;;;;;;5.55;3.42;;;;;;;;;;5012375;28;20033;-74
2023/05/12 00:07:55;;;;;;;8.07;2.92;;;;;;;;;;5012026;28;20342;-74
2023/05/12 00:10:21;;;;;;;4.78;3.05;;;;;;;;;;5012190;28;20105;-74
2023/05/12 00:12:47;;;;;;;3.63;2.70;;;;;;;;;;4994780;28;20488;-72
2023/05/12 00:15:13;;;;;;;7.15;3.05;;;;;;;;;;5012144;28;20032;-73
2023/05/12 00:17:39;;;;;;;8.20;3.40;;;;;;;;;;5011433;28;20500;-73
2023/05/12 00:20:06;;;;;;;7.05;3.90;;;;;;;;;;5011214;28;20060;-75
2023/05/12 00:22:32;;;;;;;10.25;3.60;;;;;;;;;;5012381;28;20378;-73
2023/05/12 00:24:58;;;;;;;4.80;3.35;;;;;;;;;;5012210;28;20117;-73
2023/05/12 00:27:24;;;;;;;4.97;3.22;;;;;;;;;;5011565;28;20022;-74
2023/05/12 00:29:50;;;;;;;4.05;3.05;;;;;;;;;;5012164;28;20379;-73
2023/05/12 00:32:16;;;;;;;10.35;3.67;;;;;;;;;;5011956;28;20053;-74
2023/05/12 00:34:42;;;;;;;5.85;3.65;;;;;;;;;;5011079;28;20538;-74
2023/05/12 00:37:09;;;;;;;5.57;3.67;;;;;;;;;;5010743;28;20034;-74
2023/05/12 00:42:10;;;;;;;6.85;3.20;;;;;;;;;;5034779;28;20144;-74
2023/05/12 00:44:36;;;;;;;4.60;3.67;;;;;;;;;;5033232;28;20026;-74
2023/05/12 00:47:03;;;;;;;7.18;3.33;;;;;;;;;;5013730;28;20152;-73
2023/05/12 00:49:29;;;;;;;7.30;3.65;;;;;;;;;;5031555;28;20053;-75
2023/05/12 00:51:55;;;;;;;3.50;3.20;;;;;;;;;;5031521;28;20093;-75
2023/05/12 00:54:22;;;;;;;4.78;3.53;;;;;;;;;;5014732;28;20057;-74
2023/05/12 00:56:48;;;;;;;6.10;3.60;;;;;;;;;;5011860;28;20030;-75
2023/05/12 00:59:14;;;;;;;5.13;3.40;;;;;;;;;;5011107;28;20117;-74
2023/05/12 01:01:40;;;;;;;7.05;3.97;;;;;;;;;;5011805;28;20106;-75
2023/05/12 01:04:06;;;;;;;17.73;4.25;;;;;;;;;;5011621;28;20477;-74
2023/05/12 01:06:43;;;;;;;11.43;3.97;;;;;;;;;;5011503;28;20471;-75
2023/05/12 01:09:09;;;;;;;10.13;3.88;;;;;;;;;;5010784;28;20539;-75
2023/05/12 01:11:35;;;;;;;9.05;3.80;;;;;;;;;;5011411;28;20468;-74
2023/05/12 01:14:01;;;;;;;11.48;3.63;;;;;;;;;;5011482;28;20137;-74
2023/05/12 01:16:29;;;;;;;6.45;3.75;;;;;;;;;;5010309;28;20095;-75
2023/05/12 01:18:55;;;;;;;6.00;3.80;;;;;;;;;;5010581;28;20022;-75
2023/05/12 01:21:21;;;;;;;6.32;3.88;;;;;;;;;;5011055;28;20080;-74
2023/05/12 01:23:54;;;;;;;5.50;3.75;;;;;;;;;;5011307;28;20026;-75
2023/05/12 01:26:21;;;;;;;5.03;3.33;;;;;;;;;;5011185;28;20116;-74
2023/05/12 01:28:47;;;;;;;10.55;3.97;;;;;;;;;;5010881;28;20484;-75
2023/05/12 01:31:14;;;;;;;4.45;3.40;;;;;;;;;;4993321;28;20051;-74
2023/05/12 01:33:42;;;;;;;6.28;3.30;;;;;;;;;;5008759;28;20156;-74
2023/05/12 01:36:08;;;;;;;5.38;3.50;;;;;;;;;;4986235;28;20026;-75
2023/05/12 01:38:34;;;;;;;6.82;3.92;;;;;;;;;;4990987;28;20461;-74
2023/05/12 01:41:01;;;;;;;3.83;3.50;;;;;;;;;;5003366;28;20044;-74
2023/05/12 01:43:27;;;;;;;4.68;3.40;;;;;;;;;;5010871;28;20026;-75
2023/05/12 01:45:52;;;;;;;4.60;3.50;;;;;;;;;;5010955;28;20037;-74
2023/05/12 01:48:19;;;;;;;6.07;3.95;;;;;;;;;;5010291;28;20388;-75
2023/05/12 01:50:45;;;;;;;4.55;3.70;;;;;;;;;;4992214;28;20372;-74
2023/05/12 01:53:11;;;;;;;5.47;3.80;;;;;;;;;;5009414;28;20029;-75
2023/05/12 01:55:37;;;;;;;12.02;5.18;;;;;;;;;;5010705;28;20109;-74
2023/05/12 01:58:03;;;;;;;7.57;4.05;;;;;;;;;;5009739;28;20026;-74
2023/05/12 02:00:29;;;;;;;6.50;3.97;;;;;;;;;;5010372;28;20030;-74
2023/05/12 02:02:55;;;;;;;4.80;3.67;;;;;;;;;;5010597;28;20037;-74
2023/05/12 02:05:21;;;;;;;5.40;3.78;;;;;;;;;;4992989;28;20030;-74
2023/05/12 02:07:48;;;;;;;7.57;3.70;;;;;;;;;;5010318;28;20030;-74
2023/05/12 02:10:14;;;;;;;4.63;3.53;;;;;;;;;;4993054;28;20053;-73
2023/05/12 02:12:40;;;;;;;4.68;3.78;;;;;;;;;;5011287;28;20018;-74
2023/05/12 02:15:06;;;;;;;7.45;3.97;;;;;;;;;;5011279;28;20034;-74
2023/05/12 02:17:32;;;;;;;4.68;3.85;;;;;;;;;;5010395;28;20030;-74
2023/05/12 02:19:58;;;;;;;5.57;4.03;;;;;;;;;;4992892;28;22290;-74
2023/05/12 02:22:25;;;;;;;6.80;3.63;;;;;;;;;;5010858;28;20140;-74
2023/05/12 02:24:51;;;;;;;7.13;4.18;;;;;;;;;;5012353;28;20030;-74
2023/05/12 02:27:17;;;;;;;4.22;3.72;;;;;;;;;;5013962;28;20164;-74
2023/05/12 02:29:43;;;;;;;8.45;4.05;;;;;;;;;;5014566;28;20030;-75
2023/05/12 02:32:09;;;;;;;6.03;3.80;;;;;;;;;;5014677;28;20060;-74
2023/05/12 02:34:35;;;;;;;8.98;4.43;;;;;;;;;;5014426;28;20599;-74
2023/05/12 02:37:01;;;;;;;5.50;4.43;;;;;;;;;;5014378;28;20033;-72
2023/05/12 02:39:27;;;;;;;7.63;4.60;;;;;;;;;;5014136;28;20623;-73
2023/05/12 02:41:53;;;;;;;4.63;3.97;;;;;;;;;;5014728;28;20050;-73
2023/05/12 02:44:21;;;;;;;4.85;4.20;;;;;;;;;;5014607;28;20051;-74
2023/05/12 02:46:47;;;;;;;8.13;4.20;;;;;;;;;;5014521;28;20022;-74
2023/05/12 02:49:13;;;;;;;5.95;3.95;;;;;;;;;;5014109;28;20472;-74
2023/05/12 02:51:39;;;;;;;5.82;3.85;;;;;;;;;;5018153;28;20032;-74
2023/05/12 02:54:05;;;;;;;5.20;4.15;;;;;;;;;;5018850;28;20069;-75
2023/05/12 02:56:31;;;;;;;6.82;4.07;;;;;;;;;;5014323;28;20022;-74
2023/05/12 02:58:57;;;;;;;4.85;4.00;;;;;;;;;;4995438;28;20033;-73
2023/05/12 03:01:23;;;;;;;7.40;4.38;;;;;;;;;;5014215;28;20037;-73
2023/05/12 03:03:49;;;;;;;10.13;4.97;;;;;;;;;;5014093;28;20018;-74
2023/05/12 03:06:15;;;;;;;9.00;4.60;;;;;;;;;;5011846;28;20373;-74
2023/05/12 03:08:41;;;;;;;6.55;3.92;;;;;;;;;;5013308;28;20026;-74
2023/05/12 03:11:07;;;;;;;5.32;3.92;;;;;;;;;;5013777;28;20021;-74
2023/05/12 03:13:33;;;;;;;6.10;4.53;;;;;;;;;;5014072;28;20026;-74
2023/05/12 03:16:00;;;;;;;5.13;4.03;;;;;;;;;;5014184;28;20026;-74
2023/05/12 03:18:27;;;;;;;6.55;4.47;;;;;;;;;;4995374;28;20033;-73
2023/05/12 03:20:53;;;;;;;7.20;4.93;;;;;;;;;;5014051;28;20057;-74
2023/05/12 03:23:20;;;;;;;6.80;4.40;;;;;;;;;;5013847;28;20025;-74
2023/05/12 03:25:46;;;;;;;6.18;4.45;;;;;;;;;;5014200;28;20484;-74
2023/05/12 03:28:12;;;;;;;6.80;4.53;;;;;;;;;;5013347;28;20036;-74
2023/05/12 03:30:38;;;;;;;6.18;4.10;;;;;;;;;;5013123;28;20022;-75
2023/05/12 03:33:04;;;;;;;6.22;4.20;;;;;;;;;;4995638;28;20033;-74
2023/05/12 03:35:30;;;;;;;5.13;4.03;;;;;;;;;;5012949;28;20088;-74
2023/05/12 03:37:56;;;;;;;5.72;4.25;;;;;;;;;;4994633;28;20028;-74
2023/05/12 03:40:22;;;;;;;6.65;4.03;;;;;;;;;;5015215;28;20089;-74
2023/05/12 03:42:48;;;;;;;7.13;4.38;;;;;;;;;;4999729;28;20052;-74
2023/05/12 03:45:14;;;;;;;9.35;4.47;;;;;;;;;;5016157;28;20034;-73
2023/05/12 03:47:40;;;;;;;7.50;4.60;;;;;;;;;;5012426;28;20022;-74
2023/05/12 03:50:07;;;;;;;7.43;4.85;;;;;;;;;;5030387;28;20036;-74
2023/05/12 03:52:33;;;;;;;6.57;4.65;;;;;;;;;;5030446;28;20028;-73
2023/05/12 03:54:59;;;;;;;7.07;4.30;;;;;;;;;;5013179;28;20119;-74
2023/05/12 03:57:25;;;;;;;6.10;3.90;;;;;;;;;;5012401;28;20050;-74
2023/05/12 03:59:51;;;;;;;7.50;4.10;;;;;;;;;;5011942;28;20391;-73
2023/05/12 04:02:17;;;;;;;5.90;3.95;;;;;;;;;;5011170;28;20032;-74
2023/05/12 04:04:43;;;;;;;5.25;4.15;;;;;;;;;;5007745;28;20113;-74
2023/05/12 04:07:09;;;;;;;6.22;4.15;;;;;;;;;;4992336;28;20109;-73
2023/05/12 04:09:35;;;;;;;6.00;4.32;;;;;;;;;;5010611;28;20391;-75
2023/05/12 04:12:01;;;;;;;7.78;4.20;;;;;;;;;;5011128;28;20110;-74
2023/05/12 04:14:27;;;;;;;6.38;4.90;;;;;;;;;;5010892;28;20082;-75
2023/05/12 04:16:53;;;;;;;8.07;3.95;;;;;;;;;;5012210;28;20148;-75
2023/05/12 04:19:19;;;;;;;7.05;4.72;;;;;;;;;;5011698;28;20062;-74
2023/05/12 04:21:45;;;;;;;8.10;4.50;;;;;;;;;;5012050;28;20026;-74
2023/05/12 04:24:11;;;;;;;7.65;4.65;;;;;;;;;;5012264;28;20539;-74
2023/05/12 04:26:37;;;;;;;6.40;4.18;;;;;;;;;;5012184;28;20026;-74
2023/05/12 04:29:03;;;;;;;5.25;4.10;;;;;;;;;;4994210;28;20460;-74
2023/05/12 04:31:29;;;;;;;5.47;4.25;;;;;;;;;;5011615;28;20013;-75
2023/05/12 04:33:55;;;;;;;5.20;4.05;;;;;;;;;;5011825;28;20022;-75
2023/05/12 04:36:21;;;;;;;6.13;4.10;;;;;;;;;;5011809;28;20022;-74
2023/05/12 04:38:47;;;;;;;6.93;4.28;;;;;;;;;;5011543;28;20038;-73
2023/05/12 04:41:13;;;;;;;4.95;4.03;;;;;;;;;;5011917;28;20097;-73
2023/05/12 04:43:42;;;;;;;6.30;4.13;;;;;;;;;;5012201;28;20044;-74
2023/05/12 04:46:08;;;;;;;7.32;3.65;;;;;;;;;;5011643;28;20108;-74
2023/05/12 04:48:34;;;;;;;14.43;4.80;;;;;;;;;;5010780;28;20022;-74
2023/05/12 04:51:01;;;;;;;7.88;4.07;;;;;;;;;;5011618;28;20086;-74
2023/05/12 04:53:27;;;;;;;8.00;4.07;;;;;;;;;;5011705;28;20034;-75
2023/05/12 04:55:55;;;;;;;7.43;4.15;;;;;;;;;;5011484;28;20435;-75
2023/05/12 04:58:21;;;;;;;6.35;3.83;;;;;;;;;;5011028;28;20026;-74
2023/05/12 05:00:47;;;;;;;8.00;4.60;;;;;;;;;;5011778;28;20036;-74
2023/05/12 05:03:13;;;;;;;5.88;3.90;;;;;;;;;;5011583;28;20471;-74
2023/05/12 05:05:39;;;;;;;9.32;4.60;;;;;;;;;;5011434;28;20056;-75
2023/05/12 05:08:05;;;;;;;6.68;4.00;;;;;;;;;;5010843;28;20084;-75
2023/05/12 05:10:31;;;;;;;8.77;4.72;;;;;;;;;;5011363;28;20455;-75
2023/05/12 05:12:57;;;;;;;9.45;5.13;;;;;;;;;;5011787;28;20030;-75
2023/05/12 05:15:23;;;;;;;6.60;4.28;;;;;;;;;;5011621;28;20568;-75
2023/05/12 05:17:49;;;;;;;10.63;4.35;;;;;;;;;;5010829;28;20030;-75
2023/05/12 05:20:16;;;;;;;16.80;5.25;;;;;;;;;;5006433;28;20026;-74
2023/05/12 05:22:42;;;;;;;7.00;4.85;;;;;;;;;;5011248;28;20026;-74
2023/05/12 05:25:09;;;;;;;12.80;6.43;;;;;;;;;;5011136;28;20030;-75
2023/05/12 05:27:37;;;;;;;10.43;4.82;;;;;;;;;;5010684;28;20021;-76
2023/05/12 05:30:03;;;;;;;7.63;4.60;;;;;;;;;;5011065;28;20396;-75
2023/05/12 05:32:29;;;;;;;9.52;5.03;;;;;;;;;;5011082;28;20096;-75
2023/05/12 05:34:55;;;;;;;11.57;5.15;;;;;;;;;;4993376;28;20480;-75
2023/05/12 05:37:21;;;;;;;16.92;7.45;;;;;;;;;;5010452;28;20030;-75
2023/05/12 05:39:47;;;;;;;13.02;5.47;;;;;;;;;;4998716;28;20026;-75
2023/05/12 05:42:14;;;;;;;7.22;4.65;;;;;;;;;;4976084;28;20030;-75
2023/05/12 05:44:40;;;;;;;8.73;4.93;;;;;;;;;;4991330;28;20026;-74
2023/05/12 05:47:07;;;;;;;11.65;5.15;;;;;;;;;;4990610;28;20432;-74
2023/05/12 05:49:32;;;;;;;10.13;4.63;;;;;;;;;;4991230;28;20480;-76
2023/05/12 05:51:59;;;;;;;8.68;4.30;;;;;;;;;;4974491;28;20033;-75
2023/05/12 05:54:25;;;;;;;6.65;4.10;;;;;;;;;;4996114;28;20031;-74
2023/05/12 05:56:51;;;;;;;9.13;5.10;;;;;;;;;;4994841;28;20077;-75
2023/05/12 05:59:17;;;;;;;10.90;4.65;;;;;;;;;;4990181;28;20030;-76
2023/05/12 06:01:44;;;;;;;8.38;5.07;;;;;;;;;;4973531;28;20023;-75
2023/05/12 06:04:10;;;;;;;8.32;4.22;;;;;;;;;;4991450;28;20030;-75
2023/05/12 06:06:36;;;;;;;8.65;5.68;;;;;;;;;;4991413;28;20030;-75
2023/05/12 06:09:02;;;;;;;8.85;4.88;;;;;;;;;;5001873;28;20025;-74
2023/05/12 06:11:28;;;;;;;8.07;4.90;;;;;;;;;;5011305;28;20028;-73
2023/05/12 06:13:54;;;;;;;6.70;4.15;;;;;;;;;;5010474;28;20033;-74
2023/05/12 06:16:20;;;;;;;6.18;4.97;;;;;;;;;;5010557;28;20037;-74
2023/05/12 06:18:46;;;;;;;10.82;4.55;;;;;;;;;;5010078;28;20026;-75
2023/05/12 06:21:12;;;;;;;11.88;4.78;;;;;;;;;;5010658;28;20030;-74
2023/05/12 06:23:38;;;;;;;5.68;4.43;;;;;;;;;;4992727;28;20034;-75
2023/05/12 06:26:06;;;;;;;6.25;4.13;;;;;;;;;;5011008;28;20041;-75
2023/05/12 06:28:32;;;;;;;5.72;4.45;;;;;;;;;;5010045;28;20105;-75
2023/05/12 06:30:58;;;;;;;8.68;4.25;;;;;;;;;;5010195;28;20105;-74
2023/05/12 06:33:24;;;;;;;10.55;4.00;;;;;;;;;;5010531;28;20032;-74
2023/05/12 06:35:50;;;;;;;7.45;4.50;;;;;;;;;;5010255;28;20022;-75
2023/05/12 06:38:16;;;;;;;11.50;4.32;;;;;;;;;;5008589;28;20017;-76
2023/05/12 06:43:11;;;;;;;7.15;4.45;;;;;;;;;;4989131;28;20077;-74
2023/05/12 06:45:37;;;;;;;8.48;4.55;;;;;;;;;;4989233;28;20060;-75
2023/05/12 06:48:04;;;;;;;15.32;4.57;;;;;;;;;;4990538;28;20018;-75
2023/05/12 06:50:30;;;;;;;12.85;5.30;;;;;;;;;;4991181;28;20034;-74
2023/05/12 06:52:56;;;;;;;8.30;4.50;;;;;;;;;;4990937;28;20018;-74
2023/05/12 06:55:22;;;;;;;13.25;4.50;;;;;;;;;;4990931;28;20042;-74
2023/05/12 06:57:54;;;;;;;10.05;4.53;;;;;;;;;;4990529;28;20042;-75
2023/05/12 07:00:20;;;;;;;9.07;4.55;;;;;;;;;;4993386;28;20081;-76
2023/05/12 07:02:46;;;;;;;7.18;3.80;;;;;;;;;;4991727;28;20070;-76
2023/05/12 07:05:12;;;;;;;5.13;3.92;;;;;;;;;;4993726;28;20050;-76
2023/05/12 07:07:40;;;;;;;12.60;4.47;;;;;;;;;;4991092;28;20397;-77
2023/05/12 07:10:07;;;;;;;5.97;3.75;;;;;;;;;;4991982;28;20627;-76
2023/05/12 07:12:33;;;;;;;7.72;4.38;;;;;;;;;;4997936;28;20473;-77
2023/05/12 07:14:59;;;;;;;8.60;3.63;;;;;;;;;;4998233;28;20030;-72
2023/05/12 07:17:25;;;;;;;8.95;3.78;;;;;;;;;;4993587;28;20038;-73
2023/05/12 07:19:51;;;;;;;7.05;3.70;;;;;;;;;;4994263;28;20489;-73
2023/05/12 07:22:17;;;;;;;9.63;4.38;;;;;;;;;;4994208;28;20076;-73
2023/05/12 07:24:43;;;;;;;10.07;3.58;;;;;;;;;;4990886;28;20030;-73
2023/05/12 07:27:09;;;;;;;10.02;3.80;;;;;;;;;;4992360;28;20106;-76
2023/05/12 07:29:35;;;;;;;9.35;3.63;;;;;;;;;;4992394;28;20034;-77
2023/05/12 07:32:01;;;;;;;8.35;3.78;;;;;;;;;;4994871;28;20154;-77
2023/05/12 07:34:27;;;;;;;5.70;3.40;;;;;;;;;;4994119;28;20145;-77
2023/05/12 07:36:53;;;;;;;5.57;3.45;;;;;;;;;;4994380;28;20084;-77
2023/05/12 07:39:22;;;;;;;7.30;2.92;;;;;;;;;;4993189;28;20579;-77
2023/05/12 07:41:49;;;;;;;5.45;3.53;;;;;;;;;;4995034;28;20034;-77
2023/05/12 07:44:16;;;;;;;5.18;3.05;;;;;;;;;;4994770;28;20025;-76
2023/05/12 07:46:42;;;;;;;6.53;3.00;;;;;;;;;;4996622;28;20089;-77
2023/05/12 07:49:07;;;;;;;8.32;3.30;;;29.40;25.60;;;;;;4993126;28;20028;-75
2023/05/12 07:51:33;;;;;;;5.68;2.80;;;28.90;26.10;;;;;;4992647;28;20084;-75
2023/05/12 07:53:59;;;;;;;4.90;3.35;;;29.80;26.70;;;;;;4991935;28;20022;-76
2023/05/12 07:56:25;;;;;;;7.65;3.08;;;30.00;25.40;;;;;;4976674;28;20031;-76
2023/05/12 07:58:50;;;;;;;10.02;3.53;;;31.10;25.80;;;;;;4996555;28;20034;-76
2023/05/12 08:01:16;;;;;;;6.05;3.40;;;31.60;24.40;;;;;;4998654;28;20049;-76
2023/05/12 08:03:42;;;;;;;8.55;3.65;;;31.00;24.40;;;;;;4996480;28;20030;-77
2023/05/12 08:06:07;;;;;;;5.97;2.70;;;30.00;25.70;;;;;;4993114;28;20031;-77
2023/05/12 08:08:35;;;;;;;8.63;3.72;;;;;;;;;;4994913;28;20461;-76
2023/05/12 08:11:01;;;;;;;8.90;3.17;;;;;;;;;;4993019;28;20088;-77
2023/05/12 08:13:27;;;;;;;8.77;3.60;;;;;;;;;;4992849;28;20493;-76
2023/05/12 08:15:53;;;;;;;5.30;3.55;;;;;;;;;;4994547;28;20062;-76
2023/05/12 08:18:19;;;;;;;6.75;3.25;;;;;;;;;;4994928;28;20845;-76
2023/05/12 08:20:45;;;;;;;6.60;3.20;;;;;;;;;;4997731;28;20034;-77
2023/05/12 08:23:11;;;;;;;5.93;2.80;;;;;;;;;;4992261;28;20030;-77
2023/05/12 08:25:39;;;;;;;8.00;3.38;;;;;;;;;;4992734;28;20203;-76
2023/05/12 08:28:05;;;;;;;5.20;3.20;;;;;;;;;;4992345;28;20394;-77
2023/05/12 08:30:31;;;;;;;6.95;2.80;;;;;;;;;;4974813;28;20069;-76
2023/05/12 08:32:57;;;;;;;12.32;2.90;;;;;;;;;;4992273;28;20026;-76
2023/05/12 08:35:24;;;;;;;6.43;2.90;;;;;;;;;;4992364;28;20026;-76
2023/05/12 08:37:50;;;;;;;3.42;2.80;;;28.50;29.90;;;;;;4992178;28;20030;-77
2023/05/12 08:40:20;;;;;;;6.03;2.33;;;29.20;28.70;;;;;;4993409;28;20089;-77
2023/05/12 08:43:24;;;;;;;6.82;3.03;;;30.70;27.10;;;;;;4993325;28;20040;-77
2023/05/12 08:45:51;;;;;;;7.50;2.83;;;31.50;25.10;;;;;;4993646;28;20030;-77
2023/05/12 08:48:18;;;;;;;5.13;2.47;;;31.40;25.00;;;;;;4993151;28;20026;-76
2023/05/12 08:50:46;;;;;;;7.45;2.72;;;31.40;24.80;;;;;;4993400;28;20026;-76
2023/05/12 08:53:15;;;;;;;8.15;3.15;;;30.30;25.50;;;;;;4992475;28;20041;-77
2023/05/12 08:55:41;;;;;;;8.18;3.00;;;;;;;;;;4975114;28;20448;-76
2023/05/12 08:58:08;;;;;;;5.35;2.70;;;;;;;;;;4991562;28;20023;-76
2023/05/12 09:00:37;;;;;;;7.45;2.80;;;;;;;;;;4990627;28;20030;-76
2023/05/12 09:03:06;;;;;;;5.93;2.60;;;;;;;;;;4991811;28;20022;-77
2023/05/12 09:05:32;;;;;;;5.35;3.05;;;;;;;;;;4991970;28;20104;-76
2023/05/12 09:07:59;;;;;;;3.30;2.60;;;;;;;;;;4991398;28;20023;-76
2023/05/12 09:10:26;;;;;;;5.85;2.97;;;;;;;;;;4993747;28;20042;-76
2023/05/12 09:12:54;;;;;;;4.47;2.70;;;;;;;;;;4995191;28;20033;-77
2023/05/12 09:15:25;;;;;;;3.92;2.30;;;;;;;;;;4994414;28;20034;-75
2023/05/12 09:17:51;;;;;;;4.82;2.80;;;;;;;;;;4991575;28;20109;-76
2023/05/12 09:20:17;;;;;;;9.45;3.40;;;;;;;;;;4992045;28;20030;-76
2023/05/12 09:22:43;;;;;;;6.53;2.88;;;;;;;;;;4991515;28;20030;-77
2023/05/12 09:25:17;;;;;;;10.75;2.78;;;;;;;;;;4991676;28;20041;-76
2023/05/12 09:27:43;;;;;;;6.35;2.63;;;;;;;;;;4991182;28;20057;-76
2023/05/12 09:30:09;;;;;;;4.85;3.03;;;;;;;;;;4991407;28;20026;-76
2023/05/12 09:32:35;;;;;;;11.20;3.00;;;;;;;;;;4991677;28;20050;-76
2023/05/12 09:35:02;;;;;;;5.22;3.08;;;;;;;;;;4990967;28;20029;-76
2023/05/12 09:37:32;;;;;;;4.45;2.97;;;;;;;;;;4990869;28;20033;-76
2023/05/12 09:39:59;;;;;;;10.27;3.13;;;;;;;;;;4991075;28;20031;-75
2023/05/12 09:42:28;;;;;;;5.97;2.72;;;;;;;;;;4991151;28;20501;-76
2023/05/12 09:44:58;;;;;;;5.53;3.00;;;;;;;;;;4991173;28;20109;-76
2023/05/12 09:47:27;;;;;;;5.15;3.15;;;;;;;;;;4990631;28;20057;-76
2023/05/12 09:49:55;;;;;;;3.90;2.55;;;;;;;;;;4991168;28;20034;-76
2023/05/12 09:52:21;;;;;;;8.50;3.17;;;;;;;;;;4991451;28;20026;-75
2023/05/12 09:54:47;;;;;;;10.68;2.35;;;;;;;;;;4991194;28;20030;-75
2023/05/12 09:57:15;;;;;;;4.82;2.45;;;;;;;;;;4991163;28;20393;-76
2023/05/12 09:59:43;;;;;;;4.35;2.38;;;;;;;;;;4973501;28;20085;-76
2023/05/12 10:02:11;;;;;;;3.55;2.10;;;;;;;;;;4990619;28;20031;-75
2023/05/12 10:04:44;;;;;;;2.10;1.75;;;;;;;;;;4990982;28;20048;-75
2023/05/12 10:07:12;;;;;;;3.85;2.05;;;;;;;;;;4972896;28;20485;-75
2023/05/12 10:09:40;;;;;;;7.68;2.22;;;;;;;;;;4990107;28;20026;-75
2023/05/12 10:12:07;;;;;;;3.35;2.20;;;;;;;;;;4989551;28;20034;-75
2023/05/12 10:14:34;;;;;;;4.78;2.30;;;;;;;;;;4989376;28;20027;-75
2023/05/12 10:17:01;;;;;;;4.65;1.88;;;;;;;;;;4989483;28;20033;-76
2023/05/12 10:19:29;;;;;;;7.57;2.20;;;;;;;;;;4988995;28;20027;-76
2023/05/12 10:21:56;;;;;;;8.20;2.47;;;;;;;;;;4989258;28;20026;-75
2023/05/12 10:24:25;;;;;;;8.40;2.15;;;;;;;;;;4989275;28;20134;-75
2023/05/12 10:26:52;;;;;;;3.88;2.17;;;;;;;;;;4990510;28;20378;-76
2023/05/12 10:29:18;;;;;;;4.07;2.22;;;;;;;;;;4990677;28;20022;-74
2023/05/12 10:31:45;;;;;;;4.75;2.47;;;;;;;;;;4990957;28;20106;-75
2023/05/12 10:34:17;;;;;;;3.33;2.30;;;;;;;;;;4990558;28;20093;-75
2023/05/12 10:36:48;;;;;;;4.75;2.20;;;;;;;;;;4990578;28;20037;-75
2023/05/12 10:39:14;;;;;;;3.70;2.17;;;;;;;;;;4990297;28;20085;-76
2023/05/12 10:41:41;;;;;;;3.30;2.38;;;;;;;;;;4999700;28;20034;-75
2023/05/12 10:44:09;;;;;;;4.47;2.63;;;;;;;;;;4992342;28;20399;-76
2023/05/12 10:46:35;;;;;;;9.73;2.20;;;;;;;;;;4993205;28;20026;-76
2023/05/12 10:49:03;;;;;;;3.92;2.55;;;;;;;;;;4993771;28;20493;-76
2023/05/12 10:51:29;;;;;;;6.88;2.30;;;;;;;;;;4994575;28;20392;-75
2023/05/12 10:53:57;;;;;;;5.53;2.80;;;;;;;;;;4994641;28;20080;-75
2023/05/12 10:56:25;;;;;;;6.93;2.17;;;;;;;;;;4994080;28;20035;-75
2023/05/12 10:59:11;;;;;;;8.63;2.92;;;;;;;;;;4993896;28;20084;-74
2023/05/12 11:01:37;;;;;;;2.92;2.30;;;;;;;;;;4994287;28;20122;-73
2023/05/12 11:04:18;;;;;;;5.50;2.85;;;;;;;;;;4995421;28;20061;-74
2023/05/12 11:06:44;;;;;;;6.63;2.37;;;;;;;;;;4995789;28;20054;-73
2023/05/12 11:09:11;;;;;;;3.38;2.50;;;;;;;;;;4997791;28;20085;-73
2023/05/12 11:11:37;;;;;;;8.73;2.90;;;;;;;;;;4994857;28;20033;-73
2023/05/12 11:14:03;;;;;;;5.80;2.50;;;;;;;;;;4994018;28;20384;-73
2023/05/12 11:16:31;;;;;;;4.53;2.90;;;;;;;;;;4997087;28;20022;-79
2023/05/12 11:19:01;;;;;;;5.32;2.53;;;;;;;;;;4982990;28;20143;-79
2023/05/12 11:21:27;;;;;;;5.55;2.70;;;;;;;;;;4999983;28;20030;-78
2023/05/12 11:23:54;;;;;;;3.90;2.25;;;;;;;;;;4984117;28;20026;-78
2023/05/12 11:26:21;;;;;;;3.92;2.50;;;;;;;;;;4982501;28;20119;-77
2023/05/12 11:28:47;;;;;;;5.63;3.05;;;;;;;;;;4996305;28;20050;-77
2023/05/12 11:31:18;;;;;;;4.07;2.40;;;;;;;;;;4983267;28;20461;-78
2023/05/12 11:33:44;;;;;;;8.70;2.53;;;;;;;;;;5003308;28;20083;-79
2023/05/12 11:36:11;;;;;;;2.60;2.40;;;;;;;;;;4987673;28;20038;-78
2023/05/12 11:38:37;;;;;;;5.10;2.60;;;;;;;;;;4997319;28;20042;-78
2023/05/12 11:41:03;;;;;;;8.43;2.85;;;;;;;;;;4999574;28;20023;-78
2023/05/12 11:43:29;;;;;;;6.28;2.47;;;;;;;;;;4984211;28;20031;-79
2023/05/12 11:45:55;;;;;;;6.15;2.50;;;;;;;;;;5004414;28;20160;-79
2023/05/12 11:48:21;;;;;;;5.38;3.22;;;;;;;;;;5004106;28;20030;-78
2023/05/12 11:50:50;;;;;;;7.32;3.10;;;;;;;;;;4989883;28;20057;-78
2023/05/12 11:53:17;;;;;;;10.55;4.20;;;;;;;;;;5005370;28;20035;-78
2023/05/12 11:55:54;;;;;;;5.50;3.80;;;;;;;;;;5005652;28;20018;-77
2023/05/12 11:58:22;;;;;;;8.82;3.95;;;;;;;;;;4981017;28;20015;-78
2023/05/12 12:00:48;;;;;;;7.90;4.15;;;;;;;;;;4983701;28;20039;-77
2023/05/12 12:03:15;;;;;;;3.47;2.60;;;;;;;;;;4982174;28;20029;-78
2023/05/12 12:05:42;;;;;;;8.48;3.20;;;;;;;;;;4981934;28;20031;-78
2023/05/12 12:08:08;;;;;;;5.60;3.47;;;;;;;;;;4982620;28;20481;-78
2023/05/12 12:10:34;;;;;;;7.97;3.70;;;;;;;;;;4982349;28;20050;-78
2023/05/12 12:13:01;;;;;;;4.15;2.85;;;;;;;;;;4983826;28;20037;-78
2023/05/12 12:15:28;;;;;;;7.55;3.25;;;;;;;;;;4982784;28;20133;-78
2023/05/12 12:17:54;;;;;;;8.70;3.33;;;;;;;;;;4982769;28;20019;-78
2023/05/12 12:20:20;;;;;;;7.97;3.30;;;;;;;;;;4981903;28;20757;-77
2023/05/12 12:22:46;;;;;;;6.65;3.10;;;;;;;;;;4981440;28;20030;-78
2023/05/12 12:25:12;;;;;;;7.35;3.47;;;;;;;;;;4980316;28;20027;-78
2023/05/12 12:27:38;;;;;;;10.63;3.42;;;;;;;;;;4979816;28;20496;-78
2023/05/12 12:30:05;;;;;;;5.43;3.05;;;;;;;;;;4982277;28;20130;-79
2023/05/12 12:32:31;;;;;;;6.78;3.00;;;;;;;;;;4985017;28;20050;-78
2023/05/12 12:35:00;;;;;;;5.68;3.55;;;;;;;;;;4984278;28;20038;-78
2023/05/12 12:37:26;;;;;;;9.95;3.67;;;;;;;;;;4983981;28;20054;-78
2023/05/12 12:39:53;;;;;;;6.38;3.90;;;;;;;;;;4984744;28;20059;-78
2023/05/12 12:42:19;;;;;;;5.85;4.13;;;;;;;;;;5008192;23;20126;-75
2023/05/12 12:44:47;;;;;;;8.20;4.25;;;;;;;;;;4992398;28;20114;-73
2023/05/12 12:47:13;;;;;;;9.18;4.13;;;;;;;;;;4991615;28;20026;-74
2023/05/12 12:49:39;;;;;;;10.15;4.38;;;;;;;;;;4974809;28;20023;-73
2023/05/12 12:52:05;;;;;;;7.00;4.15;;;;;;;;;;4997470;28;20568;-74
2023/05/12 12:54:32;;;;;;;8.05;4.50;;;;;;;;;;5013789;28;20030;-73
2023/05/12 12:56:58;;;;;;;6.18;4.00;;;;;;;;;;5011993;28;20515;-73
2023/05/12 12:59:24;;;;;;;8.55;3.92;;;;;;;;;;5010853;28;20523;-74
2023/05/12 13:01:50;;;;;;;10.70;4.13;;;;;;;;;;5011632;28;20383;-74
2023/05/12 13:04:20;;;;;;;8.40;3.80;;;;;;;;;;5011513;28;20022;-74
2023/05/12 13:06:46;;;;;;;5.38;3.08;;;;;;;;;;5011269;28;20029;-74
2023/05/12 13:09:12;;;;;;;4.65;3.20;;;;;;;;;;5010512;28;20029;-74
2023/05/12 13:11:39;;;;;;;9.25;3.28;;;;;;;;;;5011395;28;20034;-78
2023/05/12 13:14:07;;;;;;;8.77;2.75;;;;;;;;;;5011394;28;20018;-74
2023/05/12 13:16:32;;;;;;;4.15;2.70;;;;;;;;;;4993744;28;20129;-74
2023/05/12 13:18:58;;;;;;;4.85;2.65;;;;;;;;;;5010852;28;20100;-73
2023/05/12 13:21:25;;;;;;;7.70;2.85;;;;;;;;;;5011466;28;20044;-74
2023/05/12 13:23:51;;;;;;;7.68;3.08;;;;;;;;;;5011139;28;20435;-73
2023/05/12 13:26:17;;;;;;;7.53;3.38;;;;;;;;;;5011095;28;20026;-75
2023/05/12 13:28:43;;;;;;;7.50;3.35;;;;;;;;;;5010591;28;20084;-74
2023/05/12 13:31:09;;;;;;;6.78;3.50;;;;;;;;;;5008536;28;20088;-75
2023/05/12 13:33:35;;;;;;;6.43;3.85;;;;;;;;;;5010690;28;20104;-73
2023/05/12 13:36:01;;;;;;;7.75;3.70;;;;;;;;;;5010622;28;20025;-73
2023/05/12 13:38:28;;;;;;;7.88;4.07;;;;;;;;;;5009945;28;20033;-73
2023/05/12 13:40:54;;;;;;;5.22;3.58;;;;;;;;;;5003935;28;20037;-74
2023/05/12 13:43:20;;;;;;;7.65;4.10;;;;;;;;;;5010009;28;20057;-75
2023/05/12 13:45:46;;;;;;;5.47;3.60;;;;;;;;;;5009312;28;20527;-75
2023/05/12 13:48:12;;;;;;;6.80;3.63;;;;;;;;;;5008309;28;20029;-74
2023/05/12 13:50:38;;;;;;;6.75;3.00;;;;;;;;;;5009203;28;20096;-74
2023/05/12 13:53:05;;;;;;;9.02;3.65;;;;;;;;;;5009031;28;20022;-75
2023/05/12 13:55:33;;;;;;;3.40;3.10;;;;;;;;;;5009095;28;20030;-74
2023/05/12 13:57:59;;;;;;;5.95;3.78;;;;;;;;;;5008262;28;20034;-73
2023/05/12 14:00:28;;;;;;;6.00;3.72;;;;;;;;;;5009765;28;20080;-74
2023/05/12 14:02:55;;;;;;;9.07;3.70;;;;;;;;;;4993150;28;20026;-73
2023/05/12 14:05:21;;;;;;;10.30;4.95;;;;;;;;;;5010893;28;20022;-73
2023/05/12 14:07:47;;;;;;;5.78;4.05;;;;;;;;;;4993484;28;20049;-74
2023/05/12 14:10:13;;;;;;;11.30;4.22;;;;;;;;;;4974025;28;20030;-74
2023/05/12 14:12:41;;;;;;;7.55;3.97;;;;;;;;;;4991277;28;20046;-74
2023/05/12 14:15:07;;;;;;;8.77;4.07;;;;;;;;;;4973455;28;20026;-73
2023/05/12 14:17:33;;;;;;;9.40;3.92;;;;;;;;;;4990068;28;20022;-74
2023/05/12 14:20:00;;;;;;;6.53;4.20;;;;;;;;;;4990921;28;20034;-74
2023/05/12 14:22:26;;;;;;;7.38;4.13;;;;;;;;;;4994424;28;20026;-75
2023/05/12 14:24:52;;;;;;;6.88;4.07;;;;;;;;;;4994726;28;20389;-74
2023/05/12 14:27:18;;;;;;;4.72;3.70;;;;;;;;;;4993770;28;20034;-75
2023/05/12 14:29:44;;;;;;;6.63;3.50;;;;;;;;;;4994446;28;20055;-74
2023/05/12 14:32:11;;;;;;;9.23;3.28;;;;;;;;;;4993648;28;20023;-74
2023/05/12 14:34:37;;;;;;;6.20;2.80;;;;;;;;;;4994578;28;20072;-73
2023/05/12 14:37:03;;;;;;;3.70;2.70;;;;;;;;;;4994407;28;20026;-73